Time;durP1;ratioP1;P1;durP2;ratioP2;P2;SDS_P1;SDS_P2;PMS_P1;PMS_P2;Temp;Humidity;BMP_temperature;BMP_pressure;BME280_temperature;BME280_humidity;BME280_pressure;Samples;Min_cycle;Max_cycle;Signal;HPM_P1;HPM_P2
2023/02/08 00:00:43;;;;;;;21.33;13.23;;;2.20;99.90;;;;;;6215966;23;20155;-76
2023/02/08 00:03:09;;;;;;;21.00;12.93;;;2.20;99.90;;;;;;6214062;23;20140;-76
2023/02/08 00:05:34;;;;;;;23.83;13.27;;;2.10;99.90;;;;;;6215495;23;20147;-75
2023/02/08 00:08:00;;;;;;;21.43;13.83;;;2.00;99.90;;;;;;6215666;23;20558;-76
2023/02/08 00:10:26;;;;;;;22.77;13.07;;;2.00;99.90;;;;;;6213964;23;20151;-76
2023/02/08 00:12:53;;;;;;;25.23;13.97;;;2.00;99.90;;;;;;6215968;23;20168;-76
2023/02/08 00:15:19;;;;;;;24.67;14.23;;;1.90;99.90;;;;;;6213773;23;20140;-75
2023/02/08 00:17:44;;;;;;;25.53;14.20;;;1.90;99.90;;;;;;6215572;23;20223;-76
2023/02/08 00:20:11;;;;;;;24.83;14.20;;;1.80;99.90;;;;;;6215779;23;20133;-76
2023/02/08 00:22:37;;;;;;;23.50;14.00;;;1.70;99.90;;;;;;6213666;23;20640;-76
2023/02/08 00:25:04;;;;;;;28.63;15.23;;;1.60;99.90;;;;;;6213765;23;20147;-77
2023/02/08 00:27:30;;;;;;;22.93;13.90;;;1.60;99.90;;;;;;6214989;23;20143;-76
2023/02/08 00:29:58;;;;;;;24.27;13.87;;;1.60;99.90;;;;;;6215611;23;20168;-76
2023/02/08 00:32:24;;;;;;;24.40;14.00;;;1.60;99.90;;;;;;6213515;23;20180;-76
2023/02/08 00:34:50;;;;;;;23.40;13.20;;;1.60;99.90;;;;;;6214171;23;20244;-76
2023/02/08 00:37:15;;;;;;;21.90;13.20;;;1.60;99.90;;;;;;6215243;23;20219;-76
2023/02/08 00:39:41;;;;;;;21.43;13.13;;;1.70;99.90;;;;;;6215084;23;20135;-76
2023/02/08 00:42:07;;;;;;;21.77;13.43;;;1.60;99.90;;;;;;6213423;23;20577;-76
2023/02/08 00:44:32;;;;;;;21.13;13.47;;;1.50;99.90;;;;;;6214809;23;20167;-75
2023/02/08 00:46:58;;;;;;;23.50;13.50;;;1.40;99.90;;;;;;6215510;23;20500;-75
2023/02/08 00:49:23;;;;;;;22.63;13.63;;;1.40;99.90;;;;;;6214402;23;20828;-75
2023/02/08 00:51:49;;;;;;;26.73;14.43;;;1.30;99.90;;;;;;6215932;23;20140;-76
2023/02/08 00:54:16;;;;;;;30.63;14.90;;;1.40;99.90;;;;;;6215717;23;20128;-75
2023/02/08 00:56:43;;;;;;;24.67;15.03;;;1.50;99.90;;;;;;6214018;23;20148;-76
2023/02/08 00:59:09;;;;;;;29.17;15.10;;;1.50;99.90;;;;;;6214629;23;20186;-76
2023/02/08 01:01:34;;;;;;;22.67;13.00;;;1.40;99.90;;;;;;6215053;23;20144;-76
2023/02/08 01:04:00;;;;;;;26.87;14.03;;;1.40;99.90;;;;;;6215296;23;20128;-76
2023/02/08 01:06:25;;;;;;;24.13;14.17;;;1.30;99.90;;;;;;6214786;23;20488;-76
2023/02/08 01:08:51;;;;;;;27.70;15.37;;;1.30;99.90;;;;;;6213646;23;20144;-76
2023/02/08 01:11:21;;;;;;;22.83;14.73;;;1.30;99.90;;;;;;6214597;23;20128;-76
2023/02/08 01:13:47;;;;;;;23.53;14.30;;;1.30;99.90;;;;;;6214797;23;20207;-76
2023/02/08 01:16:21;;;;;;;22.90;14.50;;;1.30;99.90;;;;;;6214597;23;20583;-77
2023/02/08 01:18:48;;;;;;;24.83;15.27;;;1.30;99.90;;;;;;6213088;23;20162;-76
2023/02/08 01:21:17;;;;;;;26.00;15.00;;;1.30;99.90;;;;;;6213160;23;20156;-75
2023/02/08 01:23:45;;;;;;;25.27;15.30;;;1.20;99.90;;;;;;6214976;23;20143;-76
2023/02/08 01:26:13;;;;;;;29.60;16.43;;;1.30;99.90;;;;;;6214435;23;20136;-75
2023/02/08 01:28:39;;;;;;;25.03;15.80;;;1.30;99.90;;;;;;6214724;23;20136;-76
2023/02/08 01:31:07;;;;;;;29.33;16.60;;;1.30;99.90;;;;;;6213507;23;20592;-76
2023/02/08 01:33:33;;;;;;;32.67;16.93;;;1.30;99.90;;;;;;6215360;23;20167;-76
2023/02/08 01:35:58;;;;;;;28.57;16.23;;;1.20;99.90;;;;;;6215347;23;20580;-77
2023/02/08 01:38:24;;;;;;;26.63;15.93;;;1.30;99.90;;;;;;6215366;23;20160;-77
2023/02/08 01:40:50;;;;;;;26.50;16.13;;;1.20;99.90;;;;;;6214797;23;20132;-77
2023/02/08 01:43:23;;;;;;;24.30;15.80;;;1.20;99.90;;;;;;6215296;23;20182;-77
2023/02/08 01:45:49;;;;;;;27.07;16.83;;;1.20;99.90;;;;;;6213427;23;20152;-75
2023/02/08 01:48:25;;;;;;;26.90;15.70;;;1.10;99.90;;;;;;6215604;23;20159;-75
2023/02/08 01:51:07;;;;;;;28.00;16.23;;;1.10;99.90;;;;;;6215222;23;20143;-76
2023/02/08 01:53:34;;;;;;;27.47;16.13;;;1.10;99.90;;;;;;6213334;23;20230;-76
2023/02/08 01:56:05;;;;;;;25.27;16.43;;;1.20;99.90;;;;;;6215167;23;20128;-75
2023/02/08 01:58:35;;;;;;;28.70;15.50;;;1.20;99.90;;;;;;6214929;23;20598;-75
2023/02/08 02:01:01;;;;;;;24.17;15.33;;;1.10;99.90;;;;;;6213614;23;20574;-76
2023/02/08 02:03:27;;;;;;;28.40;15.30;;;1.20;99.90;;;;;;6214969;23;20159;-76
2023/02/08 02:06:00;;;;;;;27.23;15.07;;;1.20;99.90;;;;;;6214747;23;20594;-76
2023/02/08 02:08:25;;;;;;;28.73;15.97;;;1.10;99.90;;;;;;6213857;23;20154;-75
2023/02/08 02:10:51;;;;;;;25.67;15.60;;;1.10;99.90;;;;;;6214723;23;20207;-76
2023/02/08 02:13:20;;;;;;;26.10;16.10;;;1.10;99.90;;;;;;6213320;23;20598;-76
2023/02/08 02:15:47;;;;;;;31.07;15.73;;;1.10;99.90;;;;;;6216970;23;20136;-76
2023/02/08 02:18:23;;;;;;;28.10;15.60;;;1.00;99.90;;;;;;6217144;23;20151;-76
2023/02/08 02:21:19;;;;;;;24.43;14.83;;;1.00;99.90;;;;;;6217209;23;20160;-76
2023/02/08 02:24:15;;;;;;;22.10;14.57;;;1.00;99.90;;;;;;6215022;23;20597;-76
2023/02/08 02:27:16;;;;;;;25.60;15.63;;;1.00;99.90;;;;;;6215358;23;20144;-76
2023/02/08 02:30:04;;;;;;;30.40;15.50;;;1.00;99.90;;;;;;6125479;23;20166;-76
2023/02/08 02:33:18;;;;;;;26.53;15.23;;;1.00;99.90;;;;;;6212101;23;20258;-76
2023/02/08 02:36:15;;;;;;;26.23;15.03;;;1.00;99.90;;;;;;6209062;23;20148;-75
2023/02/08 02:39:08;;;;;;;27.13;15.67;;;1.00;99.90;;;;;;6215617;23;20581;-76
2023/02/08 02:44:41;;;;;;;25.10;15.10;;;0.90;99.90;;;;;;6216824;23;20479;-76
2023/02/08 02:47:31;;;;;;;27.80;16.13;;;0.90;99.90;;;;;;6214787;23;20148;-77
2023/02/08 02:50:28;;;;;;;26.97;16.00;;;0.90;99.90;;;;;;6215859;23;20152;-75
2023/02/08 02:53:10;;;;;;;26.97;15.80;;;0.80;99.90;;;;;;6209645;23;20633;-75
2023/02/08 02:55:42;;;;;;;27.00;14.87;;;0.70;99.90;;;;;;6217170;23;20787;-76
2023/02/08 02:58:10;;;;;;;27.77;16.73;;;0.70;99.90;;;;;;6216791;23;20159;-76
2023/02/08 03:00:36;;;;;;;26.87;16.27;;;0.70;99.90;;;;;;6217309;23;20210;-76
2023/02/08 03:03:03;;;;;;;27.57;16.10;;;0.60;99.90;;;;;;6217278;23;20151;-76
2023/02/08 03:05:29;;;;;;;26.00;16.13;;;0.70;99.90;;;;;;6215568;23;20153;-76
2023/02/08 03:08:26;;;;;;;24.33;14.17;;;0.60;99.90;;;;;;6215813;23;20163;-76
2023/02/08 03:11:11;;;;;;;26.67;16.73;;;0.50;99.90;;;;;;6212386;23;20152;-76
2023/02/08 03:13:59;;;;;;;29.03;15.57;;;0.50;99.90;;;;;;6214687;23;20175;-76
2023/02/08 03:16:31;;;;;;;26.17;15.13;;;0.60;99.90;;;;;;6216991;23;20156;-76
2023/02/08 03:19:08;;;;;;;28.97;15.50;;;0.60;99.90;;;;;;6217198;23;20148;-76
2023/02/08 03:21:56;;;;;;;29.67;15.97;;;0.50;99.90;;;;;;6215070;23;20486;-76
2023/02/08 03:24:26;;;;;;;25.03;15.80;;;0.50;99.90;;;;;;6216565;23;20227;-76
2023/02/08 03:27:05;;;;;;;24.73;15.77;;;0.50;99.90;;;;;;6216018;23;20568;-77
2023/02/08 03:29:43;;;;;;;27.00;15.67;;;0.50;99.90;;;;;;6216530;23;20128;-75
2023/02/08 03:32:16;;;;;;;27.47;15.43;;;0.50;99.90;;;;;;6216352;23;20246;-76
2023/02/08 03:34:54;;;;;;;28.03;15.50;;;0.50;99.90;;;;;;6214834;23;20194;-76
2023/02/08 03:37:25;;;;;;;29.00;16.07;;;0.50;99.90;;;;;;6216307;23;20133;-75
2023/02/08 03:39:55;;;;;;;29.03;15.77;;;0.50;99.90;;;;;;6216849;23;20128;-76
2023/02/08 03:42:25;;;;;;;30.80;16.27;;;0.50;99.90;;;;;;6216431;23;20478;-76
2023/02/08 03:44:57;;;;;;;25.10;14.97;;;0.50;99.90;;;;;;6216806;23;20135;-76
2023/02/08 03:47:27;;;;;;;24.60;14.87;;;0.40;99.90;;;;;;6216833;23;20144;-76
2023/02/08 03:49:57;;;;;;;25.33;15.63;;;0.40;99.90;;;;;;6215295;23;20167;-76
2023/02/08 03:52:24;;;;;;;26.30;15.77;;;0.40;99.90;;;;;;6216020;23;20179;-75
2023/02/08 03:55:13;;;;;;;27.63;15.13;;;0.40;99.90;;;;;;6216278;23;20474;-75
2023/02/08 03:57:54;;;;;;;25.30;15.13;;;0.40;99.90;;;;;;6217048;23;20128;-75
2023/02/08 04:00:22;;;;;;;28.00;15.43;;;0.40;99.90;;;;;;6215130;23;20143;-75
2023/02/08 04:02:58;;;;;;;25.13;14.60;;;0.50;99.90;;;;;;6214788;23;20250;-75
2023/02/08 04:05:24;;;;;;;27.43;14.70;;;0.50;99.90;;;;;;6216123;23;20204;-75
2023/02/08 04:07:50;;;;;;;25.13;14.87;;;0.50;99.90;;;;;;6216750;23;20128;-75
2023/02/08 04:10:16;;;;;;;23.50;14.20;;;0.50;99.90;;;;;;6215822;23;20132;-75
2023/02/08 04:12:44;;;;;;;25.73;15.30;;;0.50;99.90;;;;;;6216070;23;20167;-75
2023/02/08 04:15:11;;;;;;;25.07;13.93;;;0.50;99.90;;;;;;6216811;23;20172;-76
2023/02/08 04:17:37;;;;;;;24.93;15.20;;;0.50;99.90;;;;;;6215141;23;20152;-75
2023/02/08 04:20:02;;;;;;;25.27;14.63;;;0.50;99.90;;;;;;6215050;23;20144;-76
2023/02/08 04:22:28;;;;;;;26.37;15.00;;;0.40;99.90;;;;;;6216560;23;20132;-76
2023/02/08 04:24:53;;;;;;;24.23;14.00;;;0.40;99.90;;;;;;6214984;23;20144;-76
2023/02/08 04:27:20;;;;;;;21.50;13.70;;;0.40;99.90;;;;;;6216884;23;20132;-76
2023/02/08 04:29:46;;;;;;;21.53;14.03;;;0.40;99.90;;;;;;6216877;23;20155;-75
2023/02/08 04:32:12;;;;;;;23.47;14.43;;;0.30;99.90;;;;;;6216682;23;20172;-75
2023/02/08 04:34:38;;;;;;;30.73;16.20;;;0.30;99.90;;;;;;6216331;23;20152;-75
2023/02/08 04:37:04;;;;;;;26.03;14.70;;;0.60;99.90;;;;;;6214746;23;20224;-75
2023/02/08 04:39:30;;;;;;;24.67;14.10;;;0.60;99.90;;;;;;6216582;23;20132;-75
2023/02/08 04:41:56;;;;;;;24.77;14.80;;;0.50;99.90;;;;;;6214964;23;20206;-75
2023/02/08 04:44:22;;;;;;;26.60;15.03;;;0.50;99.90;;;;;;6215985;23;20132;-75
2023/02/08 04:46:47;;;;;;;23.80;14.30;;;0.50;99.90;;;;;;6213799;23;20148;-75
2023/02/08 04:49:13;;;;;;;25.80;14.97;;;0.50;99.90;;;;;;6213454;23;20521;-75
2023/02/08 04:51:40;;;;;;;25.07;14.30;;;0.60;99.90;;;;;;6213498;23;20151;-75
2023/02/08 04:54:06;;;;;;;23.63;14.07;;;0.50;99.90;;;;;;6213867;23;20159;-76
2023/02/08 04:56:32;;;;;;;26.07;14.30;;;0.50;99.90;;;;;;6215784;23;20208;-76
2023/02/08 04:58:58;;;;;;;26.77;13.93;;;0.40;99.90;;;;;;6215144;23;20163;-76
2023/02/08 05:01:23;;;;;;;24.63;13.70;;;0.40;99.90;;;;;;6214815;23;20152;-75
2023/02/08 05:03:49;;;;;;;24.87;14.47;;;0.30;99.90;;;;;;6215636;23;20134;-76
2023/02/08 05:06:16;;;;;;;25.63;14.47;;;0.30;99.90;;;;;;6215307;23;20194;-76
2023/02/08 05:08:42;;;;;;;22.97;13.13;;;0.30;99.90;;;;;;6213847;23;20151;-76
2023/02/08 05:11:09;;;;;;;22.87;12.60;;;0.30;99.90;;;;;;6215188;23;20474;-76
2023/02/08 05:13:35;;;;;;;26.23;14.83;;;0.20;99.90;;;;;;6213335;23;20203;-75
2023/02/08 05:16:00;;;;;;;26.27;14.63;;;0.20;99.90;;;;;;6215357;23;20204;-76
2023/02/08 05:18:27;;;;;;;24.30;13.03;;;0.20;99.90;;;;;;6213541;23;20262;-76
2023/02/08 05:21:00;;;;;;;22.57;14.27;;;0.30;99.90;;;;;;6215709;23;20128;-76
2023/02/08 05:23:26;;;;;;;24.57;13.57;;;0.30;99.90;;;;;;6213755;23;20143;-76
2023/02/08 05:25:52;;;;;;;26.23;13.83;;;0.20;99.90;;;;;;6215339;23;20132;-76
2023/02/08 05:28:18;;;;;;;24.57;14.17;;;0.20;99.90;;;;;;6215391;23;20159;-77
2023/02/08 05:30:45;;;;;;;23.77;14.30;;;0.20;99.90;;;;;;6214636;23;20156;-77
2023/02/08 05:33:11;;;;;;;24.93;14.17;;;0.20;99.90;;;;;;6214482;23;20187;-76
2023/02/08 05:35:37;;;;;;;24.07;14.23;;;0.30;99.90;;;;;;6213615;23;20163;-75
2023/02/08 05:38:03;;;;;;;26.60;13.37;;;0.20;99.90;;;;;;6213640;23;20140;-76
2023/02/08 05:40:32;;;;;;;26.67;14.10;;;0.20;99.90;;;;;;6213630;23;20155;-75
2023/02/08 05:42:59;;;;;;;25.77;13.53;;;0.20;99.90;;;;;;6215327;23;20137;-75
2023/02/08 05:45:26;;;;;;;24.87;14.43;;;0.20;99.90;;;;;;6213905;23;20599;-75
2023/02/08 05:47:53;;;;;;;25.57;13.50;;;0.20;99.90;;;;;;6214506;23;20625;-76
2023/02/08 05:50:21;;;;;;;20.33;13.30;;;0.20;99.90;;;;;;6215711;23;20473;-75
2023/02/08 05:52:49;;;;;;;23.83;13.43;;;0.10;99.90;;;;;;6216797;23;20172;-76
2023/02/08 05:55:16;;;;;;;23.43;13.10;;;0.10;99.90;;;;;;6215894;23;20143;-75
2023/02/08 05:57:43;;;;;;;25.77;14.47;;;0.10;99.90;;;;;;6216109;23;20143;-75
2023/02/08 06:00:09;;;;;;;25.00;13.57;;;0.10;99.90;;;;;;6217092;23;20160;-75
2023/02/08 06:02:34;;;;;;;23.20;13.53;;;0.20;99.90;;;;;;6216392;23;20139;-75
2023/02/08 06:05:02;;;;;;;21.90;13.70;;;0.20;99.90;;;;;;6215758;23;20155;-75
2023/02/08 06:07:29;;;;;;;26.47;14.23;;;0.20;99.90;;;;;;6215160;23;20215;-75
2023/02/08 06:09:55;;;;;;;24.37;14.30;;;0.20;99.90;;;;;;6215217;23;20197;-75
2023/02/08 06:12:22;;;;;;;24.00;13.53;;;0.20;99.90;;;;;;6215052;23;20171;-75
2023/02/08 06:14:49;;;;;;;24.87;13.17;;;0.20;99.90;;;;;;6216711;23;20133;-75
2023/02/08 06:17:17;;;;;;;22.83;13.17;;;0.20;99.90;;;;;;6214918;23;20219;-75
2023/02/08 06:19:43;;;;;;;23.93;12.50;;;0.20;99.90;;;;;;6216631;23;20148;-75
2023/02/08 06:22:09;;;;;;;20.67;12.10;;;0.30;99.90;;;;;;6214736;23;20156;-76
2023/02/08 06:24:34;;;;;;;26.43;12.60;;;0.30;99.90;;;;;;6214951;23;20202;-76
2023/02/08 06:27:02;;;;;;;22.57;11.77;;;0.40;99.90;;;;;;6216661;23;20163;-75
2023/02/08 06:29:28;;;;;;;21.47;11.50;;;0.50;99.90;;;;;;6216737;23;20139;-76
2023/02/08 06:31:53;;;;;;;19.63;12.33;;;0.50;99.90;;;;;;6216255;23;20140;-76
2023/02/08 06:34:20;;;;;;;20.93;12.23;;;0.40;99.90;;;;;;6216177;23;20210;-76
2023/02/08 06:37:00;;;;;;;19.87;11.50;;;0.50;99.90;;;;;;6216712;23;20577;-75
2023/02/08 06:39:28;;;;;;;19.80;11.23;;;0.40;99.90;;;;;;6212325;23;20139;-74
2023/02/08 06:41:56;;;;;;;19.07;11.47;;;0.40;99.90;;;;;;6213112;23;20140;-74
2023/02/08 06:44:27;;;;;;;18.63;11.63;;;0.30;99.90;;;;;;6215390;23;20454;-75
2023/02/08 06:46:57;;;;;;;17.20;10.93;;;0.30;99.90;;;;;;6214038;23;20163;-76
2023/02/08 06:49:25;;;;;;;18.67;11.37;;;0.30;99.90;;;;;;6215510;23;20601;-77
2023/02/08 06:51:52;;;;;;;19.33;11.97;;;0.30;99.90;;;;;;6215397;23;20227;-76
2023/02/08 06:54:21;;;;;;;21.47;11.50;;;0.20;99.90;;;;;;6215436;23;20211;-76
2023/02/08 06:56:57;;;;;;;20.03;11.40;;;0.30;99.90;;;;;;6214840;23;20159;-76
2023/02/08 06:59:25;;;;;;;20.77;11.57;;;0.20;99.90;;;;;;6214933;23;20159;-74
2023/02/08 07:01:51;;;;;;;19.47;11.70;;;0.30;99.90;;;;;;6215310;23;20135;-75
2023/02/08 07:04:16;;;;;;;21.20;12.60;;;0.30;99.90;;;;;;6215058;23;20148;-76
2023/02/08 07:06:48;;;;;;;20.90;12.43;;;0.20;99.90;;;;;;6212923;23;20230;-75
2023/02/08 07:09:16;;;;;;;23.10;13.43;;;0.30;99.90;;;;;;6213405;23;20159;-74
2023/02/08 07:11:42;;;;;;;25.33;12.03;;;0.30;99.90;;;;;;6213130;23;20822;-75
2023/02/08 07:14:13;;;;;;;25.50;12.33;;;0.30;99.90;;;;;;6212938;23;20243;-74
2023/02/08 07:16:42;;;;;;;24.53;12.50;;;0.30;99.90;;;;;;6214645;23;20609;-74
2023/02/08 07:19:11;;;;;;;26.67;13.60;;;0.30;99.90;;;;;;6214965;23;20602;-74
2023/02/08 07:21:54;;;;;;;25.07;13.63;;;0.40;99.90;;;;;;6215289;23;20128;-74
2023/02/08 07:24:20;;;;;;;25.70;13.00;;;0.50;99.90;;;;;;6215568;23;20186;-74
2023/02/08 07:26:46;;;;;;;27.07;13.23;;;0.60;99.90;;;;;;6214794;23;20235;-75
2023/02/08 07:29:14;;;;;;;21.73;12.10;;;0.70;99.90;;;;;;6215024;23;20129;-76
2023/02/08 07:31:45;;;;;;;23.13;12.53;;;0.80;99.90;;;;;;6212731;23;20147;-73
2023/02/08 07:34:20;;;;;;;23.87;12.00;;;1.00;99.90;;;;;;6214357;23;20133;-74
2023/02/08 07:36:49;;;;;;;22.60;11.03;;;1.10;99.90;;;;;;6214129;23;20576;-75
2023/02/08 07:39:16;;;;;;;20.57;11.77;;;1.10;99.90;;;;;;6214476;23;20132;-76
2023/02/08 07:41:42;;;;;;;22.87;11.70;;;1.10;99.90;;;;;;6214536;23;20128;-81
2023/02/08 07:44:20;;;;;;;17.23;10.67;;;1.10;99.90;;;;;;6212397;23;20148;-84
2023/02/08 07:46:49;;;;;;;17.90;10.47;;;1.20;99.90;;;;;;6215574;23;20485;-82
2023/02/08 07:49:16;;;;;;;18.80;10.73;;;1.20;99.90;;;;;;6216003;23;20136;-75
2023/02/08 07:51:44;;;;;;;20.17;10.60;;;1.30;99.90;;;;;;6214548;23;20593;-75
2023/02/08 07:54:10;;;;;;;19.53;10.67;;;1.30;99.90;;;;;;6215301;23;20573;-74
2023/02/08 07:56:36;;;;;;;18.37;10.97;;;1.20;99.90;;;;;;6214194;23;20155;-75
2023/02/08 07:59:01;;;;;;;18.63;11.57;;;1.20;99.90;;;;;;6215036;23;20258;-72
2023/02/08 08:01:27;;;;;;;17.67;10.73;;;1.10;99.90;;;;;;6214583;23;20147;-73
2023/02/08 08:03:53;;;;;;;23.50;11.77;;;1.10;99.90;;;;;;6215261;23;20211;-73
2023/02/08 08:06:21;;;;;;;20.30;11.10;;;1.10;99.90;;;;;;6214901;23;20136;-74
2023/02/08 08:08:47;;;;;;;19.77;10.50;;;1.10;99.90;;;;;;6215467;23;20143;-74
2023/02/08 08:11:15;;;;;;;20.77;10.33;;;1.20;99.90;;;;;;6214983;23;20177;-74
2023/02/08 08:13:40;;;;;;;16.60;8.63;;;1.30;99.90;;;;;;6213353;23;20476;-73
2023/02/08 08:16:07;;;;;;;15.13;8.43;;;1.40;99.90;;;;;;6215149;23;20275;-73
2023/02/08 08:18:34;;;;;;;16.20;8.73;;;1.50;99.90;;;;;;6215059;23;20167;-73
2023/02/08 08:21:00;;;;;;;13.90;7.63;;;1.60;99.90;;;;;;6213531;23;20197;-73
2023/02/08 08:23:27;;;;;;;14.70;8.00;;;1.70;99.90;;;;;;6213428;23;20218;-73
2023/02/08 08:25:53;;;;;;;12.27;7.83;;;1.80;99.90;;;;;;6214584;23;20160;-73
2023/02/08 08:28:19;;;;;;;14.33;7.80;;;1.80;99.90;;;;;;6213324;23;20180;-74
2023/02/08 08:30:45;;;;;;;17.23;8.23;;;1.90;99.90;;;;;;6214786;23;20159;-73
2023/02/08 08:33:12;;;;;;;14.90;8.77;;;1.90;99.90;;;;;;6215003;23;20239;-73
2023/02/08 08:35:41;;;;;;;15.50;8.70;;;1.90;99.90;;;;;;6214692;23;20145;-74
2023/02/08 08:38:06;;;;;;;18.97;8.70;;;2.00;99.90;;;;;;6214974;23;20136;-74
2023/02/08 08:40:32;;;;;;;16.00;8.40;;;2.00;99.90;;;;;;6214406;23;20521;-74
2023/02/08 08:42:59;;;;;;;18.43;8.20;;;2.10;99.90;;;;;;6215081;23;20132;-74
2023/02/08 08:45:24;;;;;;;16.47;8.37;;;2.10;99.90;;;;;;6214812;23;20144;-72
2023/02/08 08:47:50;;;;;;;14.27;8.00;;;2.20;99.90;;;;;;6213314;23;20792;-73
2023/02/08 08:50:16;;;;;;;12.20;7.00;;;2.40;99.90;;;;;;6213352;23;20148;-74
2023/02/08 08:52:42;;;;;;;14.87;8.43;;;2.50;99.90;;;;;;6215076;23;20195;-73
2023/02/08 08:55:09;;;;;;;13.43;8.10;;;2.60;99.90;;;;;;6214610;23;20132;-73
2023/02/08 08:57:35;;;;;;;15.57;9.03;;;2.60;99.90;;;;;;6215150;23;20579;-74
2023/02/08 09:00:02;;;;;;;12.97;8.70;;;2.70;99.90;;;;;;6214575;23;20160;-74
2023/02/08 09:02:29;;;;;;;15.17;8.93;;;2.80;99.90;;;;;;6213005;23;20152;-73
2023/02/08 09:04:58;;;;;;;16.13;8.00;;;2.80;99.90;;;;;;6214599;23;20207;-74
2023/02/08 09:07:24;;;;;;;22.10;8.10;;;2.80;99.90;;;;;;6212798;23;20231;-76
2023/02/08 09:09:49;;;;;;;16.50;8.00;;;2.90;99.90;;;;;;6214350;23;20210;-73
2023/02/08 09:12:15;;;;;;;11.60;7.23;;;3.00;99.90;;;;;;6215353;23;20166;-73
2023/02/08 09:14:43;;;;;;;12.97;7.40;;;3.10;99.90;;;;;;6215714;23;20156;-73
2023/02/08 09:17:09;;;;;;;13.87;7.53;;;3.30;99.90;;;;;;6213835;23;20149;-74
2023/02/08 09:19:36;;;;;;;14.30;7.13;;;3.30;99.90;;;;;;6213969;23;20148;-74
2023/02/08 09:22:01;;;;;;;13.83;7.57;;;3.40;99.90;;;;;;6215919;23;20140;-74
2023/02/08 09:24:27;;;;;;;12.07;7.20;;;3.50;99.90;;;;;;6216722;23;20132;-73
2023/02/08 09:26:52;;;;;;;16.63;7.10;;;3.70;99.90;;;;;;6217802;23;20610;-74
2023/02/08 09:29:19;;;;;;;12.67;7.53;;;3.80;99.90;;;;;;6217845;23;20196;-73
2023/02/08 09:31:45;;;;;;;12.27;7.03;;;3.80;99.90;;;;;;6216793;23;20130;-74
2023/02/08 09:34:11;;;;;;;13.77;7.10;;;3.80;99.90;;;;;;6216524;23;20164;-73
2023/02/08 09:36:39;;;;;;;10.57;6.87;;;4.00;99.90;;;;;;6214684;23;20186;-73
2023/02/08 09:39:14;;;;;;;16.40;6.80;;;4.00;99.90;;;;;;6216358;23;20133;-74
2023/02/08 09:41:58;;;;;;;14.77;7.40;;;4.20;99.90;;;;;;6216603;23;20128;-73
2023/02/08 09:44:34;;;;;;;10.63;6.40;;;4.30;99.90;;;;;;6216709;23;20132;-73
2023/02/08 09:47:08;;;;;;;11.03;6.20;;;4.20;99.90;;;;;;6214971;23;20140;-73
2023/02/08 09:49:45;;;;;;;11.93;6.53;;;4.30;99.90;;;;;;6216755;23;20143;-73
2023/02/08 09:52:17;;;;;;;12.07;6.80;;;4.30;99.90;;;;;;6216455;23;20606;-73
2023/02/08 09:54:48;;;;;;;14.93;6.43;;;4.30;99.90;;;;;;6216018;23;20153;-73
2023/02/08 09:57:21;;;;;;;11.10;6.23;;;4.40;99.90;;;;;;6216129;23;20170;-73
2023/02/08 09:59:54;;;;;;;14.17;6.67;;;4.50;99.90;;;;;;6216481;23;20160;-73
2023/02/08 10:02:24;;;;;;;9.77;5.50;;;4.50;98.30;;;;;;6216290;23;20580;-72
2023/02/08 10:05:08;;;;;;;11.67;6.03;;;4.70;98.10;;;;;;6214859;23;20202;-73
2023/02/08 10:07:35;;;;;;;9.93;5.53;;;4.80;97.80;;;;;;6214179;23;20154;-73
2023/02/08 10:10:04;;;;;;;10.83;5.73;;;5.10;95.40;;;;;;6216494;23;20138;-72
2023/02/08 10:12:31;;;;;;;14.80;6.00;;;5.10;96.10;;;;;;6214395;23;20345;-73
2023/02/08 10:15:20;;;;;;;10.27;5.57;;;5.00;96.30;;;;;;6216111;23;20197;-72
2023/02/08 10:18:05;;;;;;;17.37;5.77;;;5.10;95.30;;;;;;6216582;23;20137;-73
2023/02/08 10:20:46;;;;;;;17.63;6.50;;;5.40;95.10;;;;;;6216184;23;20161;-73
2023/02/08 10:23:34;;;;;;;11.73;6.37;;;5.40;94.80;;;;;;6216296;23;20147;-73
2023/02/08 10:26:27;;;;;;;10.80;5.40;;;5.40;95.10;;;;;;6216362;23;20610;-72
2023/02/08 10:29:19;;;;;;;13.23;5.70;;;5.40;94.80;;;;;;6216230;23;20145;-73
2023/02/08 10:32:17;;;;;;;12.63;6.90;;;5.40;94.70;;;;;;6214811;23;20160;-73
2023/02/08 10:34:49;;;;;;;8.97;5.00;;;5.40;95.10;;;;;;6214185;23;20159;-73
2023/02/08 10:37:23;;;;;;;10.13;5.13;;;5.40;94.00;;;;;;6215631;23;20185;-73
2023/02/08 10:39:50;;;;;;;9.53;5.70;;;5.60;94.40;;;;;;6214872;23;20240;-74
2023/02/08 10:42:18;;;;;;;9.37;5.40;;;5.70;93.20;;;;;;6216409;23;20143;-74
2023/02/08 10:44:56;;;;;;;9.90;5.53;;;5.80;92.80;;;;;;6216483;23;20140;-74
2023/02/08 10:47:39;;;;;;;10.27;4.80;;;5.90;93.30;;;;;;6216652;23;20469;-74
2023/02/08 10:50:39;;;;;;;10.47;5.90;;;6.40;93.10;;;;;;6216008;23;20132;-74
2023/02/08 10:53:05;;;;;;;7.40;4.63;;;7.00;92.20;;;;;;6215368;23;20176;-74
2023/02/08 10:55:35;;;;;;;9.10;5.37;;;7.60;89.90;;;;;;6215682;23;20243;-75
2023/02/08 10:58:04;;;;;;;6.17;4.30;;;7.60;88.50;;;;;;6215767;23;20136;-74
2023/02/08 11:00:37;;;;;;;7.27;4.47;;;8.20;88.60;;;;;;6215887;23;20473;-75
2023/02/08 11:03:21;;;;;;;9.67;4.90;;;8.80;87.30;;;;;;6214220;23;20140;-75
2023/02/08 11:05:47;;;;;;;7.70;4.70;;;9.30;86.10;;;;;;6214196;23;20140;-75
2023/02/08 11:08:18;;;;;;;9.80;5.03;;;9.70;85.60;;;;;;6214230;23;20147;-75
2023/02/08 11:11:04;;;;;;;7.47;4.23;;;10.00;84.80;;;;;;6214484;23;20147;-75
2023/02/08 11:13:43;;;;;;;7.27;3.97;;;10.60;82.60;;;;;;6215308;23;20595;-75
2023/02/08 11:16:12;;;;;;;8.10;4.80;;;10.60;80.20;;;;;;6213946;23;20145;-75
2023/02/08 11:18:49;;;;;;;7.87;4.00;;;11.10;78.70;;;;;;6214224;23;20528;-75
2023/02/08 11:21:23;;;;;;;9.90;4.53;;;11.60;77.10;;;;;;6215458;23;20634;-76
2023/02/08 11:23:52;;;;;;;8.60;4.17;;;12.10;75.40;;;;;;6215514;23;20143;-75
2023/02/08 11:26:30;;;;;;;6.87;3.77;;;12.20;73.00;;;;;;6213901;23;20584;-76
2023/02/08 11:29:01;;;;;;;7.47;4.70;;;11.80;72.80;;;;;;6214170;23;20165;-74
2023/02/08 11:31:29;;;;;;;8.57;4.80;;;12.00;72.00;;;;;;6214048;23;20155;-75
2023/02/08 11:34:04;;;;;;;8.37;4.13;;;12.30;71.80;;;;;;6213893;23;20167;-75
2023/02/08 11:36:32;;;;;;;6.70;4.03;;;12.90;70.10;;;;;;6215242;23;20592;-76
2023/02/08 11:39:01;;;;;;;5.90;4.00;;;13.30;68.20;;;;;;6215669;23;20129;-75
2023/02/08 11:41:27;;;;;;;6.33;3.70;;;13.60;66.10;;;;;;6215686;23;20128;-73
2023/02/08 11:44:04;;;;;;;8.27;4.30;;;14.00;63.00;;;;;;6214110;23;20258;-76
2023/02/08 11:46:33;;;;;;;4.07;2.93;;;14.30;62.10;;;;;;6213772;23;20147;-74
2023/02/08 11:49:00;;;;;;;5.40;3.00;;;14.60;61.70;;;;;;6214007;23;20231;-74
2023/02/08 11:51:35;;;;;;;4.30;2.90;;;14.60;58.50;;;;;;6214688;23;20149;-74
2023/02/08 11:54:03;;;;;;;5.80;3.00;;;14.40;58.20;;;;;;6215928;23;20542;-73
2023/02/08 11:56:31;;;;;;;5.30;3.27;;;14.70;56.10;;;;;;6216522;23;20155;-75
2023/02/08 11:59:17;;;;;;;4.30;2.80;;;14.80;54.20;;;;;;6213925;23;20198;-75
2023/02/08 12:01:44;;;;;;;3.90;2.47;;;14.00;52.20;;;;;;6215599;23;20147;-75
2023/02/08 12:04:12;;;;;;;4.67;2.80;;;14.20;52.00;;;;;;6215500;23;20137;-76
2023/02/08 12:06:53;;;;;;;3.33;2.50;;;14.40;52.00;;;;;;6215649;23;20139;-75
2023/02/08 12:09:30;;;;;;;3.67;2.60;;;14.50;50.70;;;;;;6215755;23;20136;-75
2023/02/08 12:12:24;;;;;;;7.60;2.83;;;15.00;51.20;;;;;;6215398;23;20136;-75
2023/02/08 12:15:03;;;;;;;5.13;3.00;;;14.60;51.80;;;;;;6214370;23;20147;-75
2023/02/08 12:18:01;;;;;;;6.37;2.90;;;15.10;52.10;;;;;;6215357;23;20566;-75
2023/02/08 12:20:36;;;;;;;6.73;3.20;;;15.20;51.80;;;;;;6180796;23;20467;-75
2023/02/08 12:23:04;;;;;;;4.00;2.87;;;15.40;51.50;;;;;;6215619;23;20133;-75
2023/02/08 12:25:43;;;;;;;6.07;3.17;;;15.40;50.00;;;;;;6215175;23;20133;-75
2023/02/08 12:28:20;;;;;;;6.30;3.07;;;15.90;48.60;;;;;;6213923;23;20157;-75
2023/02/08 12:31:16;;;;;;;5.57;2.63;;;16.60;47.10;;;;;;6213775;23;20146;-75
2023/02/08 12:33:54;;;;;;;3.70;2.53;;;17.20;46.30;;;;;;6189568;23;20190;-75
2023/02/08 12:36:23;;;;;;;3.63;2.87;;;17.80;47.00;;;;;;6213908;23;20486;-75
2023/02/08 12:41:51;;;;;;;6.60;3.33;;;18.20;45.30;;;;;;6215182;23;20147;-74
2023/02/08 12:44:35;;;;;;;4.93;3.13;;;18.60;44.80;;;;;;6213322;23;20151;-74
2023/02/08 12:47:28;;;;;;;5.33;3.13;;;18.20;43.80;;;;;;6213011;23;20148;-74
2023/02/08 12:50:14;;;;;;;4.37;2.97;;;18.30;44.20;;;;;;6213322;23;20464;-74
2023/02/08 12:53:18;;;;;;;8.37;3.53;;;18.30;43.50;;;;;;6214865;23;20163;-74
2023/02/08 12:55:45;;;;;;;11.97;6.23;;;18.80;42.40;;;;;;6196346;23;20155;-74
2023/02/08 12:58:14;;;;;;;7.13;4.30;;;18.60;41.70;;;;;;6214980;23;20160;-74
2023/02/08 13:00:41;;;;;;;4.87;3.30;;;18.70;42.10;;;;;;6215125;23;20140;-75
2023/02/08 13:03:16;;;;;;;5.23;3.10;;;18.80;41.80;;;;;;6213561;23;20148;-75
2023/02/08 13:05:47;;;;;;;4.40;3.30;;;18.90;41.90;;;;;;6214942;23;20218;-75